sensor_id;sensor_type;location;lat;lon;timestamp;P1;durP1;ratioP1;P2;durP2;ratioP2
43160;SDS011;40968;52.342;5.528;2024-01-15T00:00:10;15.10;;;2.92;;
43160;SDS011;40968;52.342;5.528;2024-01-15T00:02:37;10.93;;;2.80;;
43160;SDS011;40968;52.342;5.528;2024-01-15T00:05:04;17.30;;;2.83;;
43160;SDS011;40968;52.342;5.528;2024-01-15T00:07:32;30.55;;;3.10;;
43160;SDS011;40968;52.342;5.528;2024-01-15T00:09:59;38.97;;;4.90;;
43160;SDS011;40968;52.342;5.528;2024-01-15T00:12:25;13.50;;;2.65;;
43160;SDS011;40968;52.342;5.528;2024-01-15T00:14:52;17.60;;;2.40;;
43160;SDS011;40968;52.342;5.528;2024-01-15T00:17:19;13.38;;;2.95;;
43160;SDS011;40968;52.342;5.528;2024-01-15T00:19:45;16.25;;;3.38;;
43160;SDS011;40968;52.342;5.528;2024-01-15T00:22:12;24.35;;;2.60;;
43160;SDS011;40968;52.342;5.528;2024-01-15T00:24:40;17.98;;;3.08;;
43160;SDS011;40968;52.342;5.528;2024-01-15T00:27:06;10.55;;;2.85;;
43160;SDS011;40968;52.342;5.528;2024-01-15T00:29:33;14.63;;;2.78;;
43160;SDS011;40968;52.342;5.528;2024-01-15T00:32:00;14.75;;;2.42;;
43160;SDS011;40968;52.342;5.528;2024-01-15T00:34:26;28.85;;;3.92;;
43160;SDS011;40968;52.342;5.528;2024-01-15T00:36:53;17.15;;;3.10;;
43160;SDS011;40968;52.342;5.528;2024-01-15T00:39:20;17.17;;;2.85;;
43160;SDS011;40968;52.342;5.528;2024-01-15T00:41:48;14.57;;;2.95;;
43160;SDS011;40968;52.342;5.528;2024-01-15T00:44:14;29.73;;;4.03;;
43160;SDS011;40968;52.342;5.528;2024-01-15T00:46:42;31.90;;;3.67;;
43160;SDS011;40968;52.342;5.528;2024-01-15T00:49:10;12.18;;;2.92;;
43160;SDS011;40968;52.342;5.528;2024-01-15T00:51:38;15.32;;;2.58;;
43160;SDS011;40968;52.342;5.528;2024-01-15T00:54:05;13.10;;;2.72;;
43160;SDS011;40968;52.342;5.528;2024-01-15T00:56:31;14.50;;;2.60;;
43160;SDS011;40968;52.342;5.528;2024-01-15T00:58:59;7.03;;;2.33;;
43160;SDS011;40968;52.342;5.528;2024-01-15T01:01:26;9.75;;;3.35;;
43160;SDS011;40968;52.342;5.528;2024-01-15T01:03:52;13.50;;;2.70;;
43160;SDS011;40968;52.342;5.528;2024-01-15T01:06:19;23.75;;;3.00;;
43160;SDS011;40968;52.342;5.528;2024-01-15T01:08:46;15.93;;;3.05;;
43160;SDS011;40968;52.342;5.528;2024-01-15T01:11:12;13.50;;;2.25;;
43160;SDS011;40968;52.342;5.528;2024-01-15T01:13:39;12.32;;;2.58;;
43160;SDS011;40968;52.342;5.528;2024-01-15T01:16:07;10.48;;;2.25;;
43160;SDS011;40968;52.342;5.528;2024-01-15T01:18:34;7.68;;;1.92;;
43160;SDS011;40968;52.342;5.528;2024-01-15T01:21:01;11.80;;;2.47;;
43160;SDS011;40968;52.342;5.528;2024-01-15T01:23:27;14.63;;;2.38;;
43160;SDS011;40968;52.342;5.528;2024-01-15T01:25:54;14.73;;;2.60;;
43160;SDS011;40968;52.342;5.528;2024-01-15T01:28:20;9.38;;;1.80;;
43160;SDS011;40968;52.342;5.528;2024-01-15T01:30:47;10.43;;;1.75;;
43160;SDS011;40968;52.342;5.528;2024-01-15T01:33:15;9.88;;;2.35;;
43160;SDS011;40968;52.342;5.528;2024-01-15T01:35:41;9.02;;;1.73;;
43160;SDS011;40968;52.342;5.528;2024-01-15T01:38:08;7.38;;;1.60;;
43160;SDS011;40968;52.342;5.528;2024-01-15T01:40:35;12.73;;;1.77;;
43160;SDS011;40968;52.342;5.528;2024-01-15T01:43:02;9.15;;;2.00;;
43160;SDS011;40968;52.342;5.528;2024-01-15T01:45:29;10.48;;;1.48;;
43160;SDS011;40968;52.342;5.528;2024-01-15T01:47:55;15.38;;;2.20;;
43160;SDS011;40968;52.342;5.528;2024-01-15T01:50:23;13.27;;;1.27;;
43160;SDS011;40968;52.342;5.528;2024-01-15T01:52:50;7.68;;;1.70;;
43160;SDS011;40968;52.342;5.528;2024-01-15T01:55:17;11.70;;;2.10;;
43160;SDS011;40968;52.342;5.528;2024-01-15T01:57:45;9.10;;;1.65;;
43160;SDS011;40968;52.342;5.528;2024-01-15T02:00:12;9.77;;;1.60;;
43160;SDS011;40968;52.342;5.528;2024-01-15T02:02:39;12.65;;;2.05;;
43160;SDS011;40968;52.342;5.528;2024-01-15T02:05:06;9.77;;;2.13;;
43160;SDS011;40968;52.342;5.528;2024-01-15T02:07:36;11.57;;;2.35;;
43160;SDS011;40968;52.342;5.528;2024-01-15T02:10:02;8.50;;;2.00;;
43160;SDS011;40968;52.342;5.528;2024-01-15T02:12:31;10.13;;;2.28;;
43160;SDS011;40968;52.342;5.528;2024-01-15T02:14:58;15.23;;;3.35;;
43160;SDS011;40968;52.342;5.528;2024-01-15T02:17:25;11.32;;;2.10;;
43160;SDS011;40968;52.342;5.528;2024-01-15T02:19:51;14.13;;;2.15;;
43160;SDS011;40968;52.342;5.528;2024-01-15T02:22:18;12.85;;;2.53;;
43160;SDS011;40968;52.342;5.528;2024-01-15T02:24:46;17.25;;;2.42;;
43160;SDS011;40968;52.342;5.528;2024-01-15T02:27:12;13.27;;;2.42;;
43160;SDS011;40968;52.342;5.528;2024-01-15T02:29:39;11.52;;;1.90;;
43160;SDS011;40968;52.342;5.528;2024-01-15T02:32:07;9.38;;;2.17;;
43160;SDS011;40968;52.342;5.528;2024-01-15T02:34:35;10.00;;;1.88;;
43160;SDS011;40968;52.342;5.528;2024-01-15T02:37:01;6.78;;;1.88;;
43160;SDS011;40968;52.342;5.528;2024-01-15T02:39:28;12.55;;;2.55;;
43160;SDS011;40968;52.342;5.528;2024-01-15T02:41:56;19.42;;;2.38;;
43160;SDS011;40968;52.342;5.528;2024-01-15T02:44:23;10.57;;;2.00;;
43160;SDS011;40968;52.342;5.528;2024-01-15T02:46:49;9.23;;;2.17;;
43160;SDS011;40968;52.342;5.528;2024-01-15T02:49:16;8.45;;;1.58;;
43160;SDS011;40968;52.342;5.528;2024-01-15T02:51:42;15.52;;;2.17;;
43160;SDS011;40968;52.342;5.528;2024-01-15T02:54:09;12.85;;;2.17;;
43160;SDS011;40968;52.342;5.528;2024-01-15T02:56:35;13.60;;;1.92;;
43160;SDS011;40968;52.342;5.528;2024-01-15T02:59:03;10.88;;;2.10;;
43160;SDS011;40968;52.342;5.528;2024-01-15T03:01:30;24.95;;;1.95;;
43160;SDS011;40968;52.342;5.528;2024-01-15T03:03:56;12.60;;;2.10;;
43160;SDS011;40968;52.342;5.528;2024-01-15T03:06:23;11.35;;;1.42;;
43160;SDS011;40968;52.342;5.528;2024-01-15T03:08:50;8.23;;;1.38;;
43160;SDS011;40968;52.342;5.528;2024-01-15T03:11:16;5.68;;;1.85;;
43160;SDS011;40968;52.342;5.528;2024-01-15T03:13:43;9.75;;;1.30;;
43160;SDS011;40968;52.342;5.528;2024-01-15T03:16:11;4.15;;;0.90;;
43160;SDS011;40968;52.342;5.528;2024-01-15T03:18:37;3.78;;;0.70;;
43160;SDS011;40968;52.342;5.528;2024-01-15T03:21:04;9.98;;;0.80;;
43160;SDS011;40968;52.342;5.528;2024-01-15T03:23:31;6.07;;;0.68;;
43160;SDS011;40968;52.342;5.528;2024-01-15T03:25:57;2.42;;;0.40;;
43160;SDS011;40968;52.342;5.528;2024-01-15T03:28:24;0.65;;;0.22;;
43160;SDS011;40968;52.342;5.528;2024-01-15T03:30:50;2.90;;;0.70;;
43160;SDS011;40968;52.342;5.528;2024-01-15T03:33:18;2.35;;;0.82;;
43160;SDS011;40968;52.342;5.528;2024-01-15T03:35:45;10.38;;;0.55;;
43160;SDS011;40968;52.342;5.528;2024-01-15T03:38:10;0.95;;;0.38;;
43160;SDS011;40968;52.342;5.528;2024-01-15T03:40:37;3.63;;;0.50;;
43160;SDS011;40968;52.342;5.528;2024-01-15T03:43:03;2.88;;;0.90;;
43160;SDS011;40968;52.342;5.528;2024-01-15T03:45:30;1.88;;;0.65;;
43160;SDS011;40968;52.342;5.528;2024-01-15T03:47:57;1.08;;;0.35;;
43160;SDS011;40968;52.342;5.528;2024-01-15T03:50:25;1.63;;;0.47;;
43160;SDS011;40968;52.342;5.528;2024-01-15T03:52:51;1.77;;;0.45;;
43160;SDS011;40968;52.342;5.528;2024-01-15T03:55:18;1.42;;;0.40;;
43160;SDS011;40968;52.342;5.528;2024-01-15T03:57:44;3.80;;;0.90;;
43160;SDS011;40968;52.342;5.528;2024-01-15T04:00:11;3.03;;;0.60;;
43160;SDS011;40968;52.342;5.528;2024-01-15T04:02:39;5.50;;;0.60;;
43160;SDS011;40968;52.342;5.528;2024-01-15T04:05:05;2.35;;;0.57;;
43160;SDS011;40968;52.342;5.528;2024-01-15T04:07:34;1.40;;;0.68;;
43160;SDS011;40968;52.342;5.528;2024-01-15T04:10:00;8.30;;;1.15;;
43160;SDS011;40968;52.342;5.528;2024-01-15T04:12:27;4.30;;;0.73;;
43160;SDS011;40968;52.342;5.528;2024-01-15T04:14:53;7.40;;;0.90;;
43160;SDS011;40968;52.342;5.528;2024-01-15T04:17:20;5.63;;;1.33;;
43160;SDS011;40968;52.342;5.528;2024-01-15T04:19:47;3.47;;;0.80;;
43160;SDS011;40968;52.342;5.528;2024-01-15T04:22:14;5.60;;;1.08;;
43160;SDS011;40968;52.342;5.528;2024-01-15T04:24:42;7.88;;;1.13;;
43160;SDS011;40968;52.342;5.528;2024-01-15T04:27:08;7.78;;;1.27;;
43160;SDS011;40968;52.342;5.528;2024-01-15T04:29:37;7.72;;;1.38;;
43160;SDS011;40968;52.342;5.528;2024-01-15T04:32:04;5.25;;;1.30;;
43160;SDS011;40968;52.342;5.528;2024-01-15T04:34:31;10.32;;;1.10;;
43160;SDS011;40968;52.342;5.528;2024-01-15T04:36:57;3.83;;;1.42;;
43160;SDS011;40968;52.342;5.528;2024-01-15T04:39:24;5.93;;;1.30;;
43160;SDS011;40968;52.342;5.528;2024-01-15T04:41:52;7.85;;;1.30;;
43160;SDS011;40968;52.342;5.528;2024-01-15T04:44:18;8.60;;;1.83;;
43160;SDS011;40968;52.342;5.528;2024-01-15T04:46:45;12.25;;;1.50;;
43160;SDS011;40968;52.342;5.528;2024-01-15T04:49:11;8.45;;;1.35;;
43160;SDS011;40968;52.342;5.528;2024-01-15T04:51:38;5.07;;;0.90;;
43160;SDS011;40968;52.342;5.528;2024-01-15T04:54:04;9.23;;;0.95;;
43160;SDS011;40968;52.342;5.528;2024-01-15T04:56:31;3.78;;;0.88;;
43160;SDS011;40968;52.342;5.528;2024-01-15T04:58:59;4.60;;;1.05;;
43160;SDS011;40968;52.342;5.528;2024-01-15T05:01:25;11.13;;;1.30;;
43160;SDS011;40968;52.342;5.528;2024-01-15T05:03:57;8.07;;;1.20;;
43160;SDS011;40968;52.342;5.528;2024-01-15T05:06:23;6.70;;;1.30;;
43160;SDS011;40968;52.342;5.528;2024-01-15T05:08:50;5.82;;;1.40;;
43160;SDS011;40968;52.342;5.528;2024-01-15T05:11:16;3.65;;;1.17;;
43160;SDS011;40968;52.342;5.528;2024-01-15T05:13:43;7.78;;;1.60;;
43160;SDS011;40968;52.342;5.528;2024-01-15T05:16:11;6.68;;;1.45;;
43160;SDS011;40968;52.342;5.528;2024-01-15T05:18:37;8.43;;;1.50;;
43160;SDS011;40968;52.342;5.528;2024-01-15T05:21:04;6.50;;;1.40;;
43160;SDS011;40968;52.342;5.528;2024-01-15T05:23:30;9.68;;;2.13;;
43160;SDS011;40968;52.342;5.528;2024-01-15T05:25:57;22.23;;;2.50;;
43160;SDS011;40968;52.342;5.528;2024-01-15T05:28:24;26.25;;;3.10;;
43160;SDS011;40968;52.342;5.528;2024-01-15T05:30:51;15.07;;;2.92;;
43160;SDS011;40968;52.342;5.528;2024-01-15T05:33:19;15.73;;;3.03;;
43160;SDS011;40968;52.342;5.528;2024-01-15T05:35:45;9.68;;;2.58;;
43160;SDS011;40968;52.342;5.528;2024-01-15T05:38:12;10.55;;;2.60;;
43160;SDS011;40968;52.342;5.528;2024-01-15T05:40:38;9.38;;;2.20;;
43160;SDS011;40968;52.342;5.528;2024-01-15T05:43:05;12.57;;;2.50;;
43160;SDS011;40968;52.342;5.528;2024-01-15T05:45:31;13.93;;;2.55;;
43160;SDS011;40968;52.342;5.528;2024-01-15T05:48:01;9.65;;;2.40;;
43160;SDS011;40968;52.342;5.528;2024-01-15T05:50:29;14.50;;;2.20;;
43160;SDS011;40968;52.342;5.528;2024-01-15T05:52:55;12.20;;;2.35;;
43160;SDS011;40968;52.342;5.528;2024-01-15T05:55:22;13.38;;;2.63;;
43160;SDS011;40968;52.342;5.528;2024-01-15T05:57:49;12.73;;;2.17;;
43160;SDS011;40968;52.342;5.528;2024-01-15T06:00:15;20.33;;;2.67;;
43160;SDS011;40968;52.342;5.528;2024-01-15T06:02:42;15.23;;;2.58;;
43160;SDS011;40968;52.342;5.528;2024-01-15T06:05:09;12.50;;;2.22;;
43160;SDS011;40968;52.342;5.528;2024-01-15T06:07:37;11.02;;;2.15;;
43160;SDS011;40968;52.342;5.528;2024-01-15T06:10:04;12.13;;;2.92;;
43160;SDS011;40968;52.342;5.528;2024-01-15T06:12:31;9.20;;;1.55;;
43160;SDS011;40968;52.342;5.528;2024-01-15T06:14:58;8.20;;;1.63;;
43160;SDS011;40968;52.342;5.528;2024-01-15T06:17:25;7.30;;;1.90;;
43160;SDS011;40968;52.342;5.528;2024-01-15T06:19:52;12.73;;;2.35;;
43160;SDS011;40968;52.342;5.528;2024-01-15T06:22:18;8.32;;;1.75;;
43160;SDS011;40968;52.342;5.528;2024-01-15T06:24:46;5.35;;;1.50;;
43160;SDS011;40968;52.342;5.528;2024-01-15T06:27:12;8.57;;;1.50;;
43160;SDS011;40968;52.342;5.528;2024-01-15T06:29:44;7.93;;;1.77;;
43160;SDS011;40968;52.342;5.528;2024-01-15T06:32:11;5.43;;;1.85;;
43160;SDS011;40968;52.342;5.528;2024-01-15T06:34:38;10.45;;;1.60;;
43160;SDS011;40968;52.342;5.528;2024-01-15T06:37:04;18.35;;;2.35;;
43160;SDS011;40968;52.342;5.528;2024-01-15T06:39:31;10.82;;;1.98;;
43160;SDS011;40968;52.342;5.528;2024-01-15T06:41:59;10.57;;;1.80;;
43160;SDS011;40968;52.342;5.528;2024-01-15T06:44:26;10.75;;;1.60;;
43160;SDS011;40968;52.342;5.528;2024-01-15T06:46:52;13.98;;;1.88;;
43160;SDS011;40968;52.342;5.528;2024-01-15T06:49:22;11.10;;;1.73;;
43160;SDS011;40968;52.342;5.528;2024-01-15T06:51:49;11.13;;;2.05;;
43160;SDS011;40968;52.342;5.528;2024-01-15T06:54:15;10.45;;;1.90;;
43160;SDS011;40968;52.342;5.528;2024-01-15T06:56:42;10.55;;;1.92;;
43160;SDS011;40968;52.342;5.528;2024-01-15T06:59:09;8.90;;;2.20;;
43160;SDS011;40968;52.342;5.528;2024-01-15T07:01:36;10.98;;;2.30;;
43160;SDS011;40968;52.342;5.528;2024-01-15T07:04:03;15.88;;;2.55;;
43160;SDS011;40968;52.342;5.528;2024-01-15T07:06:29;9.43;;;2.00;;
43160;SDS011;40968;52.342;5.528;2024-01-15T07:08:56;12.73;;;2.20;;
43160;SDS011;40968;52.342;5.528;2024-01-15T07:11:23;13.68;;;2.38;;
43160;SDS011;40968;52.342;5.528;2024-01-15T07:13:49;20.48;;;2.83;;
43160;SDS011;40968;52.342;5.528;2024-01-15T07:16:17;18.50;;;2.65;;
43160;SDS011;40968;52.342;5.528;2024-01-15T07:18:44;16.35;;;2.63;;
43160;SDS011;40968;52.342;5.528;2024-01-15T07:21:11;11.50;;;2.30;;
43160;SDS011;40968;52.342;5.528;2024-01-15T07:23:37;10.25;;;2.30;;
43160;SDS011;40968;52.342;5.528;2024-01-15T07:26:04;24.42;;;3.45;;
43160;SDS011;40968;52.342;5.528;2024-01-15T07:28:31;12.82;;;2.10;;
43160;SDS011;40968;52.342;5.528;2024-01-15T07:30:57;14.38;;;1.98;;
43160;SDS011;40968;52.342;5.528;2024-01-15T07:33:24;10.30;;;2.20;;
43160;SDS011;40968;52.342;5.528;2024-01-15T07:35:52;12.60;;;2.40;;
43160;SDS011;40968;52.342;5.528;2024-01-15T07:38:18;12.95;;;1.83;;
43160;SDS011;40968;52.342;5.528;2024-01-15T07:40:45;12.00;;;1.60;;
43160;SDS011;40968;52.342;5.528;2024-01-15T07:43:14;25.40;;;2.33;;
43160;SDS011;40968;52.342;5.528;2024-01-15T07:45:40;5.55;;;1.10;;
43160;SDS011;40968;52.342;5.528;2024-01-15T07:48:07;7.85;;;1.55;;
43160;SDS011;40968;52.342;5.528;2024-01-15T07:50:35;9.85;;;1.63;;
43160;SDS011;40968;52.342;5.528;2024-01-15T07:53:02;7.13;;;1.50;;
43160;SDS011;40968;52.342;5.528;2024-01-15T07:55:30;6.32;;;1.02;;
43160;SDS011;40968;52.342;5.528;2024-01-15T07:57:57;6.07;;;2.08;;
43160;SDS011;40968;52.342;5.528;2024-01-15T08:00:24;7.88;;;1.50;;
43160;SDS011;40968;52.342;5.528;2024-01-15T08:02:51;5.53;;;1.55;;
43160;SDS011;40968;52.342;5.528;2024-01-15T08:05:18;6.68;;;1.92;;
43160;SDS011;40968;52.342;5.528;2024-01-15T08:07:47;6.57;;;1.90;;
43160;SDS011;40968;52.342;5.528;2024-01-15T08:10:14;13.13;;;1.40;;
43160;SDS011;40968;52.342;5.528;2024-01-15T08:12:40;17.50;;;1.77;;
43160;SDS011;40968;52.342;5.528;2024-01-15T08:15:07;9.75;;;1.60;;
43160;SDS011;40968;52.342;5.528;2024-01-15T08:17:33;9.60;;;1.80;;
43160;SDS011;40968;52.342;5.528;2024-01-15T08:20:00;6.85;;;1.60;;
43160;SDS011;40968;52.342;5.528;2024-01-15T08:22:27;9.98;;;2.15;;
43160;SDS011;40968;52.342;5.528;2024-01-15T08:24:55;13.18;;;2.20;;
43160;SDS011;40968;52.342;5.528;2024-01-15T08:27:22;11.63;;;1.70;;
43160;SDS011;40968;52.342;5.528;2024-01-15T08:29:48;9.80;;;2.13;;
43160;SDS011;40968;52.342;5.528;2024-01-15T08:32:15;6.80;;;1.80;;
43160;SDS011;40968;52.342;5.528;2024-01-15T08:34:41;13.68;;;2.28;;
43160;SDS011;40968;52.342;5.528;2024-01-15T08:37:08;7.95;;;1.80;;
43160;SDS011;40968;52.342;5.528;2024-01-15T08:39:35;9.45;;;1.70;;
43160;SDS011;40968;52.342;5.528;2024-01-15T08:42:05;5.95;;;1.70;;
43160;SDS011;40968;52.342;5.528;2024-01-15T08:44:31;11.02;;;2.35;;
43160;SDS011;40968;52.342;5.528;2024-01-15T08:46:58;11.30;;;2.03;;
43160;SDS011;40968;52.342;5.528;2024-01-15T08:49:24;14.50;;;3.55;;
43160;SDS011;40968;52.342;5.528;2024-01-15T08:51:51;14.73;;;2.40;;
43160;SDS011;40968;52.342;5.528;2024-01-15T08:54:18;21.08;;;2.50;;
43160;SDS011;40968;52.342;5.528;2024-01-15T08:56:44;8.45;;;2.20;;
43160;SDS011;40968;52.342;5.528;2024-01-15T08:59:12;17.35;;;2.20;;
43160;SDS011;40968;52.342;5.528;2024-01-15T09:01:39;13.38;;;2.28;;
43160;SDS011;40968;52.342;5.528;2024-01-15T09:04:05;17.48;;;2.13;;
43160;SDS011;40968;52.342;5.528;2024-01-15T09:06:32;10.77;;;2.85;;
43160;SDS011;40968;52.342;5.528;2024-01-15T09:08:58;10.05;;;2.20;;
43160;SDS011;40968;52.342;5.528;2024-01-15T09:11:25;9.95;;;1.90;;
43160;SDS011;40968;52.342;5.528;2024-01-15T09:13:52;13.40;;;1.90;;
43160;SDS011;40968;52.342;5.528;2024-01-15T09:16:19;11.23;;;1.98;;
43160;SDS011;40968;52.342;5.528;2024-01-15T09:18:46;10.38;;;1.95;;
43160;SDS011;40968;52.342;5.528;2024-01-15T09:21:13;6.88;;;1.70;;
43160;SDS011;40968;52.342;5.528;2024-01-15T09:23:39;8.68;;;1.58;;
43160;SDS011;40968;52.342;5.528;2024-01-15T09:26:07;9.75;;;1.70;;
43160;SDS011;40968;52.342;5.528;2024-01-15T09:28:34;8.13;;;1.35;;
43160;SDS011;40968;52.342;5.528;2024-01-15T09:31:00;6.20;;;1.40;;
43160;SDS011;40968;52.342;5.528;2024-01-15T09:33:28;14.50;;;1.67;;
43160;SDS011;40968;52.342;5.528;2024-01-15T09:35:55;8.30;;;1.63;;
43160;SDS011;40968;52.342;5.528;2024-01-15T09:38:21;9.95;;;1.60;;
43160;SDS011;40968;52.342;5.528;2024-01-15T09:40:49;9.20;;;1.50;;
43160;SDS011;40968;52.342;5.528;2024-01-15T09:43:17;9.68;;;1.92;;
43160;SDS011;40968;52.342;5.528;2024-01-15T09:45:45;19.70;;;1.80;;
43160;SDS011;40968;52.342;5.528;2024-01-15T09:48:12;11.50;;;2.00;;
43160;SDS011;40968;52.342;5.528;2024-01-15T09:50:40;10.77;;;1.60;;
43160;SDS011;40968;52.342;5.528;2024-01-15T09:53:07;6.95;;;1.65;;
43160;SDS011;40968;52.342;5.528;2024-01-15T09:55:35;11.20;;;2.33;;
43160;SDS011;40968;52.342;5.528;2024-01-15T09:58:02;12.13;;;2.20;;
43160;SDS011;40968;52.342;5.528;2024-01-15T10:00:29;18.67;;;3.13;;
43160;SDS011;40968;52.342;5.528;2024-01-15T10:02:56;14.40;;;2.50;;
43160;SDS011;40968;52.342;5.528;2024-01-15T10:05:25;10.00;;;2.22;;
43160;SDS011;40968;52.342;5.528;2024-01-15T10:07:54;10.13;;;2.50;;
43160;SDS011;40968;52.342;5.528;2024-01-15T10:10:22;19.30;;;2.25;;
43160;SDS011;40968;52.342;5.528;2024-01-15T10:12:49;12.30;;;2.40;;
43160;SDS011;40968;52.342;5.528;2024-01-15T10:15:16;16.67;;;2.85;;
43160;SDS011;40968;52.342;5.528;2024-01-15T10:17:42;12.18;;;2.47;;
43160;SDS011;40968;52.342;5.528;2024-01-15T10:20:09;12.45;;;2.70;;
43160;SDS011;40968;52.342;5.528;2024-01-15T10:22:41;20.45;;;3.05;;
43160;SDS011;40968;52.342;5.528;2024-01-15T10:25:13;16.05;;;2.60;;
43160;SDS011;40968;52.342;5.528;2024-01-15T10:27:41;9.07;;;2.30;;
43160;SDS011;40968;52.342;5.528;2024-01-15T10:30:08;12.30;;;2.00;;
43160;SDS011;40968;52.342;5.528;2024-01-15T10:32:35;13.77;;;2.20;;
43160;SDS011;40968;52.342;5.528;2024-01-15T10:35:03;19.42;;;2.70;;
43160;SDS011;40968;52.342;5.528;2024-01-15T10:37:32;17.00;;;2.50;;
43160;SDS011;40968;52.342;5.528;2024-01-15T10:40:00;9.50;;;2.33;;
43160;SDS011;40968;52.342;5.528;2024-01-15T10:42:30;21.33;;;2.78;;
43160;SDS011;40968;52.342;5.528;2024-01-15T10:44:56;18.63;;;2.15;;
43160;SDS011;40968;52.342;5.528;2024-01-15T10:47:23;10.68;;;2.03;;
43160;SDS011;40968;52.342;5.528;2024-01-15T10:49:49;25.33;;;2.78;;
43160;SDS011;40968;52.342;5.528;2024-01-15T10:52:17;9.65;;;1.95;;
43160;SDS011;40968;52.342;5.528;2024-01-15T10:54:44;6.22;;;1.42;;
43160;SDS011;40968;52.342;5.528;2024-01-15T10:57:12;7.43;;;1.20;;
43160;SDS011;40968;52.342;5.528;2024-01-15T10:59:42;6.00;;;0.95;;
43160;SDS011;40968;52.342;5.528;2024-01-15T11:02:08;8.40;;;1.00;;
43160;SDS011;40968;52.342;5.528;2024-01-15T11:04:35;6.97;;;1.40;;
43160;SDS011;40968;52.342;5.528;2024-01-15T11:07:03;5.80;;;1.08;;
43160;SDS011;40968;52.342;5.528;2024-01-15T11:09:31;5.20;;;1.27;;
43160;SDS011;40968;52.342;5.528;2024-01-15T11:12:06;14.25;;;2.15;;
43160;SDS011;40968;52.342;5.528;2024-01-15T11:14:33;11.55;;;2.92;;
43160;SDS011;40968;52.342;5.528;2024-01-15T11:17:01;12.85;;;2.67;;
43160;SDS011;40968;52.342;5.528;2024-01-15T11:19:34;7.57;;;1.40;;
43160;SDS011;40968;52.342;5.528;2024-01-15T11:22:03;5.68;;;1.17;;
43160;SDS011;40968;52.342;5.528;2024-01-15T11:24:34;5.38;;;1.33;;
43160;SDS011;40968;52.342;5.528;2024-01-15T11:27:02;7.20;;;1.17;;
43160;SDS011;40968;52.342;5.528;2024-01-15T11:29:30;7.75;;;0.95;;
43160;SDS011;40968;52.342;5.528;2024-01-15T11:31:59;5.15;;;1.05;;
43160;SDS011;40968;52.342;5.528;2024-01-15T11:37:20;5.20;;;1.17;;
43160;SDS011;40968;52.342;5.528;2024-01-15T11:39:49;4.45;;;1.27;;
43160;SDS011;40968;52.342;5.528;2024-01-15T11:42:17;3.63;;;1.00;;
43160;SDS011;40968;52.342;5.528;2024-01-15T11:44:45;4.15;;;1.00;;
43160;SDS011;40968;52.342;5.528;2024-01-15T11:47:13;4.25;;;1.10;;
43160;SDS011;40968;52.342;5.528;2024-01-15T11:49:53;6.97;;;1.65;;
43160;SDS011;40968;52.342;5.528;2024-01-15T11:52:25;15.15;;;2.20;;
43160;SDS011;40968;52.342;5.528;2024-01-15T11:54:54;12.75;;;1.58;;
43160;SDS011;40968;52.342;5.528;2024-01-15T11:57:29;14.15;;;1.92;;
43160;SDS011;40968;52.342;5.528;2024-01-15T12:00:03;6.43;;;1.70;;
43160;SDS011;40968;52.342;5.528;2024-01-15T12:02:31;12.70;;;2.10;;
43160;SDS011;40968;52.342;5.528;2024-01-15T12:04:58;12.35;;;2.03;;
43160;SDS011;40968;52.342;5.528;2024-01-15T12:07:25;11.15;;;2.03;;
43160;SDS011;40968;52.342;5.528;2024-01-15T12:09:51;10.68;;;2.13;;
43160;SDS011;40968;52.342;5.528;2024-01-15T12:12:19;19.45;;;2.10;;
43160;SDS011;40968;52.342;5.528;2024-01-15T12:14:51;9.88;;;2.10;;
43160;SDS011;40968;52.342;5.528;2024-01-15T12:17:18;16.25;;;2.40;;
43160;SDS011;40968;52.342;5.528;2024-01-15T12:19:46;32.15;;;3.72;;
43160;SDS011;40968;52.342;5.528;2024-01-15T12:22:13;10.48;;;2.38;;
43160;SDS011;40968;52.342;5.528;2024-01-15T12:24:40;17.13;;;2.80;;
43160;SDS011;40968;52.342;5.528;2024-01-15T12:27:07;14.65;;;2.60;;
43160;SDS011;40968;52.342;5.528;2024-01-15T12:29:34;11.40;;;2.15;;
43160;SDS011;40968;52.342;5.528;2024-01-15T12:32:00;10.20;;;2.17;;
43160;SDS011;40968;52.342;5.528;2024-01-15T12:34:28;6.78;;;1.77;;
43160;SDS011;40968;52.342;5.528;2024-01-15T12:36:58;5.78;;;1.60;;
43160;SDS011;40968;52.342;5.528;2024-01-15T12:39:24;6.90;;;2.05;;
43160;SDS011;40968;52.342;5.528;2024-01-15T12:41:51;6.95;;;1.65;;
43160;SDS011;40968;52.342;5.528;2024-01-15T12:44:18;4.82;;;0.90;;
43160;SDS011;40968;52.342;5.528;2024-01-15T12:46:44;4.93;;;1.02;;
43160;SDS011;40968;52.342;5.528;2024-01-15T12:49:12;4.55;;;1.15;;
43160;SDS011;40968;52.342;5.528;2024-01-15T12:51:39;2.90;;;0.80;;
43160;SDS011;40968;52.342;5.528;2024-01-15T12:54:07;3.90;;;1.00;;
43160;SDS011;40968;52.342;5.528;2024-01-15T12:56:34;4.72;;;0.75;;
43160;SDS011;40968;52.342;5.528;2024-01-15T12:59:00;8.82;;;0.95;;
43160;SDS011;40968;52.342;5.528;2024-01-15T13:01:27;3.22;;;0.95;;
43160;SDS011;40968;52.342;5.528;2024-01-15T13:03:53;3.63;;;1.88;;
43160;SDS011;40968;52.342;5.528;2024-01-15T13:06:20;10.50;;;1.27;;
43160;SDS011;40968;52.342;5.528;2024-01-15T13:08:46;9.90;;;1.15;;
43160;SDS011;40968;52.342;5.528;2024-01-15T13:11:14;5.15;;;0.90;;
43160;SDS011;40968;52.342;5.528;2024-01-15T13:13:41;6.95;;;1.40;;
43160;SDS011;40968;52.342;5.528;2024-01-15T13:16:08;6.82;;;1.23;;
43160;SDS011;40968;52.342;5.528;2024-01-15T13:18:34;5.22;;;1.02;;
43160;SDS011;40968;52.342;5.528;2024-01-15T13:21:01;8.13;;;1.30;;
43160;SDS011;40968;52.342;5.528;2024-01-15T13:23:29;4.03;;;1.05;;
43160;SDS011;40968;52.342;5.528;2024-01-15T13:25:56;4.93;;;1.13;;
43160;SDS011;40968;52.342;5.528;2024-01-15T13:28:24;1.52;;;0.80;;
43160;SDS011;40968;52.342;5.528;2024-01-15T13:30:51;8.70;;;1.20;;
43160;SDS011;40968;52.342;5.528;2024-01-15T13:33:17;6.00;;;1.33;;
43160;SDS011;40968;52.342;5.528;2024-01-15T13:35:44;5.22;;;1.30;;
43160;SDS011;40968;52.342;5.528;2024-01-15T13:38:14;7.15;;;1.63;;
43160;SDS011;40968;52.342;5.528;2024-01-15T13:40:41;5.07;;;1.15;;
43160;SDS011;40968;52.342;5.528;2024-01-15T13:43:10;5.68;;;1.58;;
43160;SDS011;40968;52.342;5.528;2024-01-15T13:45:38;11.65;;;1.30;;
43160;SDS011;40968;52.342;5.528;2024-01-15T13:48:05;9.70;;;1.85;;
43160;SDS011;40968;52.342;5.528;2024-01-15T13:50:33;8.25;;;2.13;;
43160;SDS011;40968;52.342;5.528;2024-01-15T13:52:59;18.90;;;2.80;;
43160;SDS011;40968;52.342;5.528;2024-01-15T13:55:26;6.32;;;2.28;;
43160;SDS011;40968;52.342;5.528;2024-01-15T13:57:54;11.93;;;2.60;;
43160;SDS011;40968;52.342;5.528;2024-01-15T14:00:20;8.15;;;2.03;;
43160;SDS011;40968;52.342;5.528;2024-01-15T14:02:49;14.27;;;2.25;;
43160;SDS011;40968;52.342;5.528;2024-01-15T14:05:16;24.90;;;3.22;;
43160;SDS011;40968;52.342;5.528;2024-01-15T14:07:42;16.70;;;2.60;;
43160;SDS011;40968;52.342;5.528;2024-01-15T14:10:09;10.82;;;1.77;;
43160;SDS011;40968;52.342;5.528;2024-01-15T14:12:36;8.75;;;2.05;;
43160;SDS011;40968;52.342;5.528;2024-01-15T14:15:03;6.18;;;2.03;;
43160;SDS011;40968;52.342;5.528;2024-01-15T14:17:30;11.93;;;2.13;;
43160;SDS011;40968;52.342;5.528;2024-01-15T14:19:58;9.55;;;1.95;;
43160;SDS011;40968;52.342;5.528;2024-01-15T14:22:25;13.32;;;1.95;;
43160;SDS011;40968;52.342;5.528;2024-01-15T14:24:51;7.30;;;1.60;;
43160;SDS011;40968;52.342;5.528;2024-01-15T14:27:19;5.78;;;1.58;;
43160;SDS011;40968;52.342;5.528;2024-01-15T14:29:46;12.55;;;2.67;;
43160;SDS011;40968;52.342;5.528;2024-01-15T14:32:13;7.80;;;2.20;;
43160;SDS011;40968;52.342;5.528;2024-01-15T14:34:39;9.23;;;2.08;;
43160;SDS011;40968;52.342;5.528;2024-01-15T14:37:07;13.13;;;2.92;;
43160;SDS011;40968;52.342;5.528;2024-01-15T14:39:34;12.88;;;2.45;;
43160;SDS011;40968;52.342;5.528;2024-01-15T14:42:00;13.77;;;2.45;;